Time;durP1;ratioP1;P1;durP2;ratioP2;P2;SDS_P1;SDS_P2;PMS_P1;PMS_P2;Temp;Humidity;BMP_temperature;BMP_pressure;BME280_temperature;BME280_humidity;BME280_pressure;Samples;Min_cycle;Max_cycle;Signal;HPM_P1;HPM_P2
2023/05/06 00:00:46;;;;;;;6.88;4.63;;;;;;;12.89;98.33;98821.53;5055435;28;20059;-93
2023/05/06 00:03:12;;;;;;;9.68;5.38;;;;;;;12.63;100.00;98822.44;5058521;28;20418;-94
2023/05/06 00:05:39;;;;;;;6.32;4.90;;;;;;;12.67;100.00;98846.28;5050804;28;20033;-95
2023/05/06 00:08:06;;;;;;;6.57;4.70;;;;;;;12.49;100.00;98805.13;5048229;28;20037;-92
2023/05/06 00:10:32;;;;;;;10.07;5.20;;;;;;;12.51;100.00;98832.59;5057508;28;20141;-93
2023/05/06 00:12:58;;;;;;;7.65;5.07;;;;;;;12.49;100.00;98825.56;5056299;28;20073;-92
2023/05/06 00:15:24;;;;;;;7.68;5.15;;;;;;;12.45;100.00;98813.28;5055737;28;20060;-91
2023/05/06 00:17:50;;;;;;;6.15;4.60;;;;;;;12.43;100.00;98809.78;5056163;28;20140;-93
2023/05/06 00:20:16;;;;;;;7.22;4.80;;;;;;;12.56;100.00;98829.78;5057395;28;20056;-92
2023/05/06 00:22:41;;;;;;;8.02;5.22;;;;;;;12.48;100.00;98829.16;5057210;28;20041;-93
2023/05/06 00:25:09;;;;;;;8.60;5.00;;;;;;;12.39;100.00;98825.00;5049244;28;20095;-93
2023/05/06 00:27:35;;;;;;;6.63;4.70;;;;;;;12.38;100.00;98839.25;5057066;28;20033;-91
2023/05/06 00:30:01;;;;;;;7.07;4.55;;;;;;;12.37;100.00;98834.84;5056631;28;20493;-93
2023/05/06 00:32:27;;;;;;;6.72;4.30;;;;;;;12.18;100.00;98815.06;5056698;28;20090;-95
2023/05/06 00:34:53;;;;;;;5.43;4.13;;;;;;;12.33;100.00;98830.53;5057698;28;20532;-91
2023/05/06 00:37:19;;;;;;;5.97;4.10;;;;;;;12.35;100.00;98844.69;5069959;28;20052;-92
2023/05/06 00:39:44;;;;;;;6.50;3.90;;;;;;;12.17;100.00;98813.31;5073156;28;20139;-93
2023/05/06 00:42:12;;;;;;;5.88;3.95;;;;;;;12.11;100.00;98801.91;5082884;28;20130;-93
2023/05/06 00:44:38;;;;;;;7.00;4.10;;;;;;;12.20;100.00;98808.75;5072834;28;20079;-94
2023/05/06 00:47:04;;;;;;;5.43;4.00;;;;;;;12.31;100.00;98848.38;5070555;28;20063;-93
2023/05/06 00:49:30;;;;;;;8.35;4.00;;;;;;;12.16;100.00;98816.91;5071558;28;20040;-91
2023/05/06 00:51:57;;;;;;;6.53;4.05;;;;;;;12.17;100.00;98803.53;5077776;28;20036;-94
2023/05/06 00:54:25;;;;;;;6.28;4.22;;;;;;;12.16;100.00;98808.91;5073310;28;20372;-91
2023/05/06 00:56:51;;;;;;;7.50;4.22;;;;;;;12.27;100.00;98846.72;5074460;28;20044;-93
2023/05/06 00:59:18;;;;;;;6.82;4.55;;;;;;;12.19;100.00;98843.44;5073403;28;20041;-94
2023/05/06 01:01:46;;;;;;;7.60;4.63;;;;;;;12.13;100.00;98840.06;5070964;28;20020;-91
2023/05/06 01:04:11;;;;;;;6.32;4.70;;;;;;;11.93;100.00;98810.53;5072707;28;20127;-91
2023/05/06 01:06:44;;;;;;;6.65;4.80;;;;;;;11.92;100.00;98811.44;5071847;28;20114;-93
2023/05/06 01:09:19;;;;;;;6.90;4.90;;;;;;;11.96;100.00;98831.72;5068761;28;20043;-92
2023/05/06 01:11:49;;;;;;;6.65;4.72;;;;;;;11.97;100.00;98829.94;5079670;28;20045;-93
2023/05/06 01:14:27;;;;;;;7.10;4.88;;;;;;;12.08;100.00;98839.34;5071863;28;20131;-93
2023/05/06 01:16:56;;;;;;;8.63;5.45;;;;;;;12.24;100.00;98849.53;5070193;28;20044;-93
2023/05/06 01:19:35;;;;;;;6.75;4.85;;;;;;;12.16;100.00;98849.75;5072809;28;20062;-92
2023/05/06 01:22:04;;;;;;;7.00;4.85;;;;;;;12.19;100.00;98847.00;5076246;28;20093;-92
2023/05/06 01:24:36;;;;;;;7.70;5.60;;;;;;;11.94;100.00;98801.59;5077272;28;20029;-91
2023/05/06 01:27:02;;;;;;;7.20;4.90;;;;;;;12.06;100.00;98837.66;5073811;28;20594;-94
2023/05/06 01:29:28;;;;;;;6.68;5.03;;;;;;;12.01;100.00;98816.47;5073739;28;20492;-91
2023/05/06 01:32:00;;;;;;;6.47;5.15;;;;;;;11.98;100.00;98821.91;5069300;28;20036;-93
2023/05/06 01:34:36;;;;;;;7.10;5.10;;;;;;;12.08;100.00;98841.16;5077052;28;20119;-93
2023/05/06 01:37:11;;;;;;;8.48;5.43;;;;;;;11.83;100.00;98809.91;5067475;28;20055;-93
2023/05/06 01:39:40;;;;;;;9.57;5.95;;;;;;;11.91;100.00;98839.88;5070770;28;20037;-92
2023/05/06 01:42:09;;;;;;;8.68;5.80;;;;;;;11.90;100.00;98858.56;5071071;28;20040;-93
2023/05/06 01:44:37;;;;;;;7.97;5.32;;;;;;;11.78;100.00;98833.16;5072611;28;20564;-92
2023/05/06 01:47:04;;;;;;;8.95;6.15;;;;;;;11.79;100.00;98839.34;5075104;28;20060;-94
2023/05/06 01:49:31;;;;;;;9.07;6.63;;;;;;;11.73;100.00;98837.75;5082805;28;20432;-91
2023/05/06 01:51:57;;;;;;;8.80;5.75;;;;;;;11.57;100.00;98813.38;5073344;28;20044;-91
2023/05/06 01:54:23;;;;;;;9.57;5.55;;;;;;;11.70;100.00;98830.72;5073425;28;20052;-91
2023/05/06 01:56:50;;;;;;;7.68;5.63;;;;;;;11.63;100.00;98810.53;5076737;28;20147;-93
2023/05/06 01:59:16;;;;;;;8.35;5.80;;;;;;;11.64;100.00;98814.91;5072829;28;20131;-92
2023/05/06 02:01:42;;;;;;;7.78;6.10;;;;;;;11.56;100.00;98805.41;5072273;28;20051;-93
2023/05/06 02:04:08;;;;;;;8.90;5.85;;;;;;;11.61;100.00;98815.03;5090835;28;20039;-93
2023/05/06 02:06:34;;;;;;;7.32;5.60;;;;;;;11.56;100.00;98822.28;5090859;28;20044;-91
2023/05/06 02:09:00;;;;;;;8.75;5.82;;;;;;;11.48;100.00;98803.00;5086882;28;20047;-91
2023/05/06 02:11:25;;;;;;;7.60;5.40;;;;;;;11.47;100.00;98817.22;5070449;28;20121;-94
2023/05/06 02:13:53;;;;;;;8.70;6.25;;;;;;;11.30;100.00;98799.97;5074421;28;20040;-94
2023/05/06 02:16:20;;;;;;;9.15;6.75;;;;;;;11.17;100.00;98795.94;5069526;28;20051;-93
2023/05/06 02:18:46;;;;;;;8.50;5.68;;;;;;;11.35;100.00;98817.59;5081113;28;20071;-91
2023/05/06 02:21:12;;;;;;;8.02;5.68;;;;;;;11.19;100.00;98790.53;5069494;28;20044;-92
2023/05/06 02:23:38;;;;;;;10.30;6.18;;;;;;;11.29;100.00;98797.34;5070379;28;20539;-93
2023/05/06 02:26:04;;;;;;;9.27;5.80;;;;;;;11.34;100.00;98816.72;5075207;28;20044;-93
2023/05/06 02:28:30;;;;;;;10.18;6.05;;;;;;;11.35;100.00;98801.63;5069646;28;20056;-92
2023/05/06 02:30:57;;;;;;;9.15;6.10;;;;;;;11.35;100.00;98806.97;5071297;28;20036;-92
2023/05/06 02:33:24;;;;;;;8.85;6.05;;;;;;;11.28;100.00;98809.78;5068584;28;20052;-92
2023/05/06 02:35:50;;;;;;;8.80;5.70;;;;;;;11.27;100.00;98809.81;5065994;28;20776;-92
2023/05/06 02:38:16;;;;;;;8.85;5.90;;;;;;;11.31;100.00;98816.81;5056406;28;20128;-93
2023/05/06 02:40:42;;;;;;;8.77;5.80;;;;;;;11.28;100.00;98815.13;5054885;28;20048;-92
2023/05/06 02:43:08;;;;;;;8.38;5.40;;;;;;;11.10;100.00;98795.25;5055953;28;20052;-92
2023/05/06 02:45:33;;;;;;;9.50;6.03;;;;;;;11.01;100.00;98786.63;5053777;28;20041;-91
2023/05/06 02:48:01;;;;;;;7.40;5.53;;;;;;;11.03;100.00;98787.47;5055094;28;20059;-92
2023/05/06 02:50:27;;;;;;;8.63;5.88;;;;;;;10.89;100.00;98770.09;5054700;28;20075;-92
2023/05/06 02:52:52;;;;;;;9.63;5.90;;;;;;;10.96;100.00;98775.25;5056468;28;20502;-92
2023/05/06 02:55:18;;;;;;;8.98;5.75;;;;;;;11.00;100.00;98787.56;5056576;28;20490;-94
2023/05/06 02:57:44;;;;;;;8.48;5.80;;;;;;;10.99;100.00;98794.66;5055981;28;20056;-92
2023/05/06 03:00:11;;;;;;;8.05;5.68;;;;;;;10.95;100.00;98795.69;5055784;28;20087;-92
2023/05/06 03:02:37;;;;;;;8.32;5.80;;;;;;;10.88;100.00;98783.44;5056914;28;20041;-92
2023/05/06 03:05:06;;;;;;;9.80;6.10;;;;;;;10.90;100.00;98794.91;5056869;28;20044;-93
2023/05/06 03:07:31;;;;;;;7.33;5.10;;;;;;;10.91;100.00;98796.69;5055562;28;20087;-93
2023/05/06 03:09:57;;;;;;;9.63;5.55;;;;;;;10.89;100.00;98791.38;5053699;28;20033;-93
2023/05/06 03:12:23;;;;;;;8.60;6.03;;;;;;;10.88;100.00;98786.97;5056771;28;20049;-92
2023/05/06 03:14:49;;;;;;;9.32;5.70;;;;;;;10.89;100.00;98799.38;5056915;28;20135;-93
2023/05/06 03:17:15;;;;;;;10.48;7.28;;;;;;;10.87;100.00;98803.84;5055921;28;20044;-91
2023/05/06 03:19:41;;;;;;;9.45;6.18;;;;;;;10.94;100.00;98809.88;5056866;28;20041;-91
2023/05/06 03:22:08;;;;;;;10.02;6.00;;;;;;;10.74;100.00;98775.84;5056636;28;20060;-91
2023/05/06 03:24:34;;;;;;;8.85;6.38;;;;;;;10.85;100.00;98802.16;5055971;28;20041;-93
2023/05/06 03:27:00;;;;;;;11.82;6.40;;;;;;;10.68;100.00;98771.56;5056572;28;20033;-93
2023/05/06 03:29:26;;;;;;;9.40;6.15;;;;;;;10.66;100.00;98775.19;5056020;28;20148;-93
2023/05/06 03:31:54;;;;;;;8.27;6.15;;;;;;;10.81;100.00;98797.84;5056114;28;20048;-92
2023/05/06 03:34:20;;;;;;;9.35;6.18;;;;;;;10.81;100.00;98806.69;5054875;28;20041;-91
2023/05/06 03:36:46;;;;;;;8.95;6.50;;;;;;;10.77;100.00;98801.50;5055799;28;20118;-92
2023/05/06 03:39:14;;;;;;;9.90;5.88;;;;;;;10.65;100.00;98779.63;5057053;28;20041;-93
2023/05/06 03:41:40;;;;;;;9.38;6.43;;;;;;;10.74;100.00;98796.28;5056016;28;20045;-93
2023/05/06 03:44:05;;;;;;;10.07;6.28;;;;;;;10.53;100.00;98771.13;5049601;28;20061;-92
2023/05/06 03:46:31;;;;;;;12.07;6.25;;;;;;;10.69;100.00;98804.34;5054643;28;20445;-93
2023/05/06 03:48:59;;;;;;;11.18;6.75;;;;;;;10.66;100.00;98813.28;5049891;28;20037;-92
2023/05/06 03:51:26;;;;;;;9.07;6.25;;;;;;;10.53;100.00;98795.91;5052744;28;20045;-92
2023/05/06 03:53:52;;;;;;;10.05;6.20;;;;;;;10.48;100.00;98787.19;5059657;28;20131;-92
2023/05/06 03:56:21;;;;;;;9.73;6.00;;;;;;;10.38;100.00;98769.75;5061078;28;20093;-92
2023/05/06 03:58:46;;;;;;;9.40;6.30;;;;;;;10.38;100.00;98781.22;5059441;28;20049;-91
2023/05/06 04:01:12;;;;;;;9.15;6.28;;;;;;;10.47;100.00;98791.66;5059863;28;20048;-91
2023/05/06 04:03:38;;;;;;;9.73;6.68;;;;;;;10.52;100.00;98787.97;5060358;28;20056;-92
2023/05/06 04:06:05;;;;;;;8.98;6.20;;;;;;;10.63;100.00;98817.84;5053758;28;20065;-94
2023/05/06 04:08:31;;;;;;;9.10;6.28;;;;;;;10.50;100.00;98781.84;5061197;28;20380;-91
2023/05/06 04:10:57;;;;;;;9.77;6.82;;;;;;;10.50;100.00;98779.19;5052144;28;20047;-92
2023/05/06 04:13:24;;;;;;;8.77;6.07;;;;;;;10.57;100.00;98799.38;5061125;28;20067;-92
2023/05/06 04:15:50;;;;;;;9.65;6.25;;;;;;;10.56;100.00;98800.28;5059936;28;20037;-93
2023/05/06 04:18:17;;;;;;;8.13;6.03;;;;;;;10.46;100.00;98784.56;5061422;28;20041;-91
2023/05/06 04:20:46;;;;;;;9.88;6.43;;;;;;;10.50;100.00;98789.84;5060493;28;20041;-91
2023/05/06 04:23:13;;;;;;;9.90;6.43;;;;;;;10.46;100.00;98784.56;5060564;28;20496;-92
2023/05/06 04:25:41;;;;;;;10.40;6.82;;;;;;;10.55;100.00;98795.88;5061221;28;20040;-93
2023/05/06 04:28:07;;;;;;;11.48;7.20;;;;;;;10.52;100.00;98787.97;5054556;28;20044;-93
2023/05/06 04:30:35;;;;;;;8.30;6.10;;;;;;;10.51;100.00;98791.56;5060728;28;20040;-93
2023/05/06 04:33:03;;;;;;;10.02;6.97;;;;;;;10.55;100.00;98782.59;5054935;28;20033;-92
2023/05/06 04:35:29;;;;;;;12.25;6.63;;;;;;;10.59;100.00;98786.91;5061456;28;20048;-92
2023/05/06 04:37:55;;;;;;;9.57;6.97;;;;;;;10.57;100.00;98786.94;5065824;28;20056;-92
2023/05/06 04:40:21;;;;;;;11.57;6.82;;;;;;;10.71;100.00;98807.84;5063295;28;20037;-92
2023/05/06 04:42:47;;;;;;;10.95;6.55;;;;;;;10.74;100.00;98810.44;5067146;28;20037;-93
2023/05/06 04:45:13;;;;;;;9.13;6.15;;;;;;;10.71;100.00;98802.53;5068871;28;20067;-92
2023/05/06 04:47:40;;;;;;;9.98;6.43;;;;;;;10.64;100.00;98785.00;5065213;28;20037;-91
2023/05/06 04:50:07;;;;;;;9.15;6.55;;;;;;;10.83;100.00;98815.50;5062641;28;20040;-93
2023/05/06 04:52:34;;;;;;;13.00;7.20;;;;;;;10.88;100.00;98815.38;5073653;28;20037;-93
2023/05/06 04:55:00;;;;;;;11.40;7.03;;;;;;;11.05;100.00;98826.41;5068694;28;20044;-93
2023/05/06 04:57:26;;;;;;;8.60;6.35;;;;;;;11.12;100.00;98835.09;5062626;28;20563;-93
2023/05/06 04:59:52;;;;;;;8.68;6.07;;;;;;;10.94;100.00;98796.56;5064185;28;20048;-92
2023/05/06 05:02:18;;;;;;;9.60;6.78;;;;;;;11.19;100.00;98835.78;5062850;28;20494;-91
2023/05/06 05:04:45;;;;;;;9.60;6.45;;;;;;;10.95;100.00;98793.03;5065514;28;20083;-92
2023/05/06 05:07:20;;;;;;;8.57;6.60;;;;;;;11.16;100.00;98802.16;5063432;28;20037;-94
2023/05/06 05:09:45;;;;;;;9.05;6.43;;;;;;;11.62;100.00;98816.75;5062251;28;20049;-92
2023/05/06 05:12:11;;;;;;;9.60;6.55;;;;;;;12.32;100.00;98835.00;5058914;28;20487;-91
2023/05/06 05:14:37;;;;;;;9.43;6.15;;;;;;;12.77;100.00;98836.16;5060469;28;20048;-92
2023/05/06 05:17:03;;;;;;;8.07;5.55;;;;;;;12.93;100.00;98809.81;5062168;28;20024;-92
2023/05/06 05:19:29;;;;;;;9.32;6.18;;;;;;;13.44;100.00;98834.66;5062127;28;20071;-94
2023/05/06 05:21:56;;;;;;;9.13;5.78;;;;;;;13.59;94.75;98802.03;5064593;28;20458;-93
2023/05/06 05:24:22;;;;;;;7.15;5.50;;;;;;;14.29;93.08;98854.50;5061727;28;20073;-94
2023/05/06 05:26:48;;;;;;;9.73;6.80;;;;;;;14.13;91.48;98799.88;5058273;28;20437;-93
2023/05/06 05:29:14;;;;;;;7.72;5.65;;;;;;;14.35;89.37;98807.88;5059799;28;20045;-94
2023/05/06 05:31:40;;;;;;;9.23;5.82;;;;;;;14.78;87.72;98851.59;5060316;28;20100;-92
2023/05/06 05:34:06;;;;;;;6.93;5.28;;;;;;;14.60;88.50;98814.94;5063584;28;20040;-95
2023/05/06 05:36:32;;;;;;;8.15;5.90;;;;;;;14.82;87.64;98837.16;5057912;28;20465;-94
2023/05/06 05:38:59;;;;;;;9.90;5.50;;;;;;;14.87;86.38;98819.06;5055976;28;20404;-92
2023/05/06 05:41:25;;;;;;;7.10;5.25;;;;;;;15.12;85.69;98828.72;5055876;28;20041;-93
2023/05/06 05:43:51;;;;;;;7.85;5.57;;;;;;;15.31;84.54;98844.81;5055126;28;20091;-94
2023/05/06 05:46:17;;;;;;;8.13;5.40;;;;;;;15.47;82.96;98839.63;5055779;28;20426;-93
2023/05/06 05:48:43;;;;;;;8.57;4.95;;;;;;;15.45;83.02;98812.91;5055747;28;20032;-94
2023/05/06 05:51:09;;;;;;;8.55;5.38;;;;;;;15.86;81.72;98850.34;5056817;28;20036;-92
2023/05/06 05:53:35;;;;;;;7.53;5.22;;;;;;;15.74;81.84;98810.69;5053473;28;20049;-93
2023/05/06 05:56:02;;;;;;;7.20;5.25;;;;;;;15.88;81.30;98818.97;5055673;28;20020;-92
2023/05/06 05:58:28;;;;;;;8.02;5.20;;;;;;;16.04;81.13;98842.38;5072103;28;20056;-93
2023/05/06 06:00:54;;;;;;;7.25;4.97;;;;;;;16.00;80.86;98814.81;5053351;28;20502;-94
2023/05/06 06:03:20;;;;;;;6.97;5.13;;;;;;;15.90;83.60;98809.03;5055984;28;20045;-90
2023/05/06 06:05:48;;;;;;;10.15;5.78;;;;;;;15.89;80.78;98834.09;5056195;28;20132;-94
2023/05/06 06:08:17;;;;;;;6.57;5.03;;;;;;;15.90;80.89;98813.53;5056877;28;20045;-92
2023/05/06 06:10:43;;;;;;;7.65;5.20;;;;;;;16.04;81.64;98818.22;5057198;28;20037;-93
2023/05/06 06:13:10;;;;;;;7.70;5.68;;;;;;;16.38;79.87;98841.59;5055900;28;20384;-90
2023/05/06 06:15:36;;;;;;;8.75;5.47;;;;;;;16.57;76.73;98841.53;5052916;28;20052;-93
2023/05/06 06:18:02;;;;;;;6.82;5.10;;;;;;;16.32;77.11;98807.00;5054291;28;20498;-93
2023/05/06 06:20:28;;;;;;;8.35;5.40;;;;;;;16.26;78.82;98851.09;5054991;28;20045;-93
2023/05/06 06:22:54;;;;;;;9.15;5.70;;;;;;;16.34;79.39;98838.19;5055058;28;20067;-93
2023/05/06 06:25:20;;;;;;;8.45;6.45;;;;;;;16.46;76.60;98808.97;5070354;28;20056;-95
2023/05/06 06:27:46;;;;;;;6.72;5.00;;;;;;;16.80;74.37;98810.84;5054529;28;20104;-93
2023/05/06 06:30:13;;;;;;;7.18;5.43;;;;;;;17.24;73.39;98834.53;5053692;28;20037;-94
2023/05/06 06:32:47;;;;;;;6.90;5.38;;;;;;;17.60;71.33;98810.13;5054442;28;20525;-93
2023/05/06 06:35:13;;;;;;;8.70;6.70;;;;;;;17.73;72.17;98815.72;5057099;28;20043;-93
2023/05/06 06:37:38;;;;;;;8.57;6.32;;;;;;;17.85;70.31;98812.38;5058855;28;20131;-94
2023/05/06 06:40:06;;;;;;;10.45;6.30;;;;;;;17.90;70.90;98828.25;5058392;28;20052;-93
2023/05/06 06:42:32;;;;;;;8.45;6.20;;;;;;;17.64;71.24;98822.47;5068414;28;20131;-93
2023/05/06 06:44:57;;;;;;;7.97;5.93;;;;;;;16.90;73.90;98804.06;5057485;28;20462;-94
2023/05/06 06:47:25;;;;;;;7.22;5.60;;;;;;;16.95;75.68;98814.56;5055848;28;20102;-94
2023/05/06 06:49:51;;;;;;;8.05;5.75;;;;;;;17.24;75.84;98834.53;5061700;28;20453;-92
2023/05/06 06:52:16;;;;;;;10.45;6.32;;;;;;;17.14;75.04;98814.47;5060101;28;20041;-91
2023/05/06 06:54:42;;;;;;;7.05;5.40;;;;;;;17.31;74.49;98822.50;5062974;28;20041;-94
2023/05/06 06:57:08;;;;;;;7.80;5.93;;;;;;;17.08;75.07;98822.84;5065107;28;20061;-93
2023/05/06 06:59:34;;;;;;;8.50;6.03;;;;;;;17.48;75.21;98829.66;5053371;28;20053;-90
2023/05/06 07:02:01;;;;;;;8.45;5.68;;;;;;;17.82;72.78;98812.53;5057028;28;20047;-94
2023/05/06 07:04:28;;;;;;;7.43;5.22;;;;;;;17.98;70.93;98798.25;5056693;28;20528;-93
2023/05/06 07:06:55;;;;;;;6.97;5.20;;;;;;;18.37;68.99;98788.81;5059664;28;20074;-93
2023/05/06 07:09:21;;;;;;;6.82;4.85;;;;;;;18.39;68.35;98784.19;5054542;28;20044;-94
2023/05/06 07:11:47;;;;;;;7.13;5.20;;;;;;;18.70;67.79;98788.63;5056490;28;20045;-93
2023/05/06 07:14:13;;;;;;;7.10;5.30;;;;;;;19.14;65.50;98805.78;5059624;28;20037;-93
2023/05/06 07:16:39;;;;;;;7.05;4.70;;;;;;;19.18;64.31;98780.38;5064650;28;20075;-94
2023/05/06 07:19:05;;;;;;;7.18;5.18;;;;;;;19.20;64.29;98792.78;5062823;28;20041;-94
2023/05/06 07:21:32;;;;;;;9.57;6.10;;;;;;;19.26;64.38;98783.47;5062260;28;20077;-94
2023/05/06 07:23:58;;;;;;;6.82;5.18;;;;;;;19.43;63.79;98802.16;5071999;28;20394;-92
2023/05/06 07:26:25;;;;;;;6.95;4.85;;;;;;;19.64;62.21;98804.44;5067647;28;20049;-93
2023/05/06 07:28:51;;;;;;;7.07;4.88;;;;;;;19.77;61.85;98800.00;5067072;28;20072;-92
2023/05/06 07:31:19;;;;;;;7.78;4.90;;;;;;;20.01;60.57;98805.66;5068583;28;20052;-94
2023/05/06 07:33:45;;;;;;;8.85;5.30;;;;;;;19.96;60.93;98809.63;5063420;28;20422;-95
2023/05/06 07:36:11;;;;;;;7.00;4.93;;;;;;;19.79;59.94;98814.28;5063913;28;20545;-94
2023/05/06 07:38:38;;;;;;;7.85;5.18;;;;;;;19.80;61.91;98820.53;5061633;28;20041;-94
2023/05/06 07:41:05;;;;;;;7.15;5.00;;;;;;;19.95;60.35;98802.50;5060611;28;20073;-93
2023/05/06 07:43:30;;;;;;;8.85;5.72;;;;;;;19.99;60.99;98804.03;5059111;28;20045;-93
2023/05/06 07:46:01;;;;;;;6.88;5.20;;;;;;;19.99;58.79;98790.53;5059695;28;20045;-93
2023/05/06 07:48:27;;;;;;;7.10;5.05;;;;;;;19.40;62.54;98818.50;5059223;28;20037;-93
2023/05/06 07:50:53;;;;;;;8.10;5.05;;;;;;;19.62;62.15;98817.16;5061733;28;20051;-94
2023/05/06 07:53:19;;;;;;;27.42;15.75;;;;;;;20.02;60.72;98834.41;5061417;28;20048;-93
2023/05/06 07:55:46;;;;;;;7.38;5.90;;;;;;;20.29;58.44;98810.09;5062266;28;20049;-93
2023/05/06 07:58:12;;;;;;;7.72;5.20;;;;;;;20.84;57.44;98835.28;5061522;28;20056;-95
2023/05/06 08:00:38;;;;;;;6.95;4.20;;;;;;;20.89;55.38;98821.47;5056976;28;20059;-95
2023/05/06 08:03:04;;;;;;;8.10;4.35;;;;;;;20.44;57.48;98802.81;5061210;28;20045;-93
2023/05/06 08:05:30;;;;;;;6.00;4.50;;;;;;;20.81;56.75;98815.72;5049614;28;20071;-89
2023/05/06 08:07:56;;;;;;;10.25;6.72;;;;;;;21.11;55.84;98816.28;5057431;28;20086;-93
2023/05/06 08:10:22;;;;;;;13.57;9.25;;;;;;;21.11;54.90;98791.09;5061479;28;20036;-93
2023/05/06 08:12:49;;;;;;;8.27;5.47;;;;;;;21.59;54.24;98825.63;5060398;28;20041;-94
2023/05/06 08:15:15;;;;;;;7.63;4.93;;;;;;;20.85;54.73;98796.47;5057356;28;20041;-93
2023/05/06 08:17:41;;;;;;;6.82;4.70;;;;;;;20.58;55.87;98818.16;5056775;28;20044;-94
2023/05/06 08:20:08;;;;;;;7.15;5.03;;;;;;;20.46;54.59;98797.31;5053934;28;20040;-94
2023/05/06 08:22:34;;;;;;;7.15;5.00;;;;;;;20.10;55.84;98809.59;5052624;28;20125;-93
2023/05/06 08:25:00;;;;;;;6.53;4.57;;;;;;;20.64;55.74;98828.50;5050190;28;20061;-92
2023/05/06 08:27:25;;;;;;;6.13;4.25;;;;;;;21.12;55.38;98825.25;5056847;28;20041;-92
2023/05/06 08:29:53;;;;;;;7.45;4.68;;;;;;;21.29;54.21;98832.22;5055392;28;20040;-93
2023/05/06 08:32:18;;;;;;;7.78;5.13;;;;;;;21.34;52.01;98814.69;5046603;28;20027;-95
2023/05/06 08:34:44;;;;;;;18.15;12.07;;;;;;;21.65;52.56;98826.06;5056071;28;20065;-94
2023/05/06 08:37:10;;;;;;;6.68;4.70;;;;;;;21.74;50.72;98803.75;5060390;28;20409;-94
2023/05/06 08:39:36;;;;;;;6.82;5.35;;;;;;;21.80;48.64;98802.44;5056812;28;20440;-94
2023/05/06 08:42:04;;;;;;;15.07;8.45;;;;;;;21.89;50.59;98796.34;5061457;28;20490;-94
2023/05/06 08:44:30;;;;;;;7.28;5.15;;;;;;;21.85;48.79;98785.84;5061050;28;20410;-95
2023/05/06 08:46:57;;;;;;;6.82;4.07;;;;;;;21.90;49.85;98800.81;5063296;28;20045;-94
2023/05/06 08:49:24;;;;;;;7.88;3.85;;;;;;;22.16;49.18;98811.53;5061003;28;20364;-93
2023/05/06 08:51:52;;;;;;;7.03;3.88;;;;;;;22.18;49.12;98800.59;5059113;28;20048;-93
2023/05/06 08:54:18;;;;;;;9.60;3.80;;;;;;;22.01;49.38;98788.28;5060162;28;20045;-94
2023/05/06 08:56:46;;;;;;;5.55;3.80;;;;;;;22.29;48.75;98807.00;5058998;28;20410;-94
2023/05/06 08:59:12;;;;;;;8.35;3.90;;;;;;;22.39;50.24;98817.13;5061127;28;20132;-95
2023/05/06 09:01:39;;;;;;;7.90;4.03;;;;;;;21.92;50.17;98800.66;5059217;28;20044;-94
2023/05/06 09:04:07;;;;;;;10.27;4.18;;;;;;;21.72;50.55;98802.13;5057241;28;20136;-94
2023/05/06 09:06:33;;;;;;;9.13;4.13;;;;;;;21.41;52.01;98815.16;5061937;28;20143;-95
2023/05/06 09:08:59;;;;;;;10.00;4.70;;;;;;;21.66;51.61;98821.50;5064908;28;20036;-94
2023/05/06 09:11:28;;;;;;;9.70;4.18;;;;;;;22.11;49.83;98822.72;5059732;28;20043;-96
2023/05/06 09:14:06;;;;;;;;;;;;;;;22.37;50.18;98816.38;5058119;28;20059;-96
2023/05/06 09:16:32;;;;;;;10.88;5.10;;;;;;;22.54;48.82;98795.16;5064901;28;19920;-93
2023/05/06 09:18:58;;;;;;;9.23;4.40;;;;;;;22.89;48.65;98804.28;5058642;28;20140;-93
2023/05/06 09:21:32;;;;;;;8.23;4.15;;;;;;;22.45;49.51;98814.81;5060350;28;20036;-91
2023/05/06 09:23:58;;;;;;;10.38;5.18;;;;;;;22.96;48.12;98800.09;5057140;28;20072;-93
2023/05/06 09:26:26;;;;;;;8.15;4.03;;;;;;;22.93;47.99;98800.34;5059356;28;20536;-94
2023/05/06 09:28:52;;;;;;;7.38;3.80;;;;;;;23.02;47.56;98758.13;5060905;28;20045;-94
2023/05/06 09:31:18;;;;;;;7.63;3.88;;;;;;;23.27;46.76;98773.31;5061099;28;20136;-94
2023/05/06 09:33:44;;;;;;;6.18;3.97;;;;;;;23.48;46.21;98784.31;5064430;28;20033;-94
2023/05/06 09:36:12;;;;;;;5.78;3.80;;;;;;;23.13;47.55;98777.97;5061310;28;20044;-94
2023/05/06 09:38:40;;;;;;;6.22;3.78;;;;;;;23.23;47.47;98766.41;5056695;28;20068;-94
2023/05/06 09:41:06;;;;;;;6.13;3.78;;;;;;;23.49;47.89;98795.06;5054444;28;20515;-93
2023/05/06 09:43:32;;;;;;;7.30;3.40;;;;;;;23.31;47.46;98793.78;5055175;28;20037;-93
2023/05/06 09:46:00;;;;;;;6.13;3.28;;;;;;;23.50;47.14;98794.06;5053718;28;20036;-93
2023/05/06 09:48:29;;;;;;;6.13;3.60;;;;;;;23.79;46.48;98796.31;5054043;28;20073;-94
2023/05/06 09:50:55;;;;;;;7.03;3.55;;;;;;;24.02;44.65;98796.28;5052656;28;21705;-93
2023/05/06 09:53:22;;;;;;;6.88;4.60;;;;;;;23.98;45.22;98796.56;5055346;28;20084;-94
2023/05/06 09:55:50;;;;;;;5.68;3.70;;;;;;;24.16;45.54;98788.72;5055523;28;20033;-94
2023/05/06 09:58:16;;;;;;;6.88;3.60;;;;;;;24.12;45.33;98770.09;5055840;28;20040;-94
2023/05/06 10:00:42;;;;;;;5.13;3.53;;;;;;;24.41;43.85;98762.22;5055843;28;20498;-93
2023/05/06 10:03:10;;;;;;;6.32;3.80;;;;;;;24.43;43.23;98759.38;5055556;28;20037;-95
2023/05/06 10:05:37;;;;;;;6.57;4.25;;;;;;;23.54;45.17;98753.97;5053885;28;20051;-94
2023/05/06 10:08:03;;;;;;;5.90;4.18;;;;;;;23.92;46.22;98779.88;5054157;28;20499;-93
2023/05/06 10:10:30;;;;;;;5.22;3.30;;;;;;;24.04;43.75;98770.72;5054449;28;20569;-94
2023/05/06 10:12:57;;;;;;;6.13;3.50;;;;;;;24.40;44.21;98764.06;5054405;28;20515;-93
2023/05/06 10:15:25;;;;;;;5.68;3.50;;;;;;;24.48;43.43;98757.13;5053905;28;20044;-95
2023/05/06 10:17:51;;;;;;;5.10;3.05;;;;;;;24.31;42.78;98755.81;5054041;28;20099;-94
2023/05/06 10:20:20;;;;;;;6.50;3.35;;;;;;;24.56;43.18;98749.22;5053569;28;20041;-94
2023/05/06 10:22:58;;;;;;;4.70;3.20;;;;;;;24.43;42.66;98738.47;5053914;28;20515;-94
2023/05/06 10:25:33;;;;;;;6.40;3.50;;;;;;;24.38;42.92;98741.59;5054413;28;20040;-92
2023/05/06 10:28:03;;;;;;;7.63;3.30;;;;;;;24.44;42.84;98737.50;5052604;28;20402;-93
2023/05/06 10:30:31;;;;;;;5.65;3.38;;;;;;;24.35;42.77;98743.69;5054080;28;20041;-93
2023/05/06 10:32:58;;;;;;;;;;;;;;;24.48;42.75;98746.25;5053642;28;20412;-94
2023/05/06 10:35:37;;;;;;;4.57;3.00;;;;;;;24.08;42.72;98730.59;5055948;28;19920;-93
2023/05/06 10:38:08;;;;;;;5.05;3.10;;;;;;;24.06;43.36;98735.28;5071380;28;20040;-94
2023/05/06 10:40:34;;;;;;;4.32;3.17;;;;;;;24.35;42.64;98711.09;5082179;28;20044;-93
2023/05/06 10:43:23;;;;;;;5.72;3.30;;;;;;;24.68;42.13;98725.53;5067050;28;20497;-93
2023/05/06 10:46:01;;;;;;;3.38;2.45;;;;;;;24.71;41.66;98722.56;5065290;28;20047;-94
2023/05/06 10:48:27;;;;;;;3.90;2.80;;;;;;;24.95;40.12;98727.72;5065567;28;20037;-92
2023/05/06 10:51:24;;;;;;;4.22;2.90;;;;;;;25.27;39.57;98729.53;5073837;28;20048;-95
2023/05/06 10:54:01;;;;;;;3.92;2.70;;;;;;;25.15;39.40;98718.66;5070109;28;20470;-93
2023/05/06 10:56:28;;;;;;;4.47;2.65;;;;;;;25.36;38.46;98715.09;5070099;28;20033;-94
2023/05/06 10:58:56;;;;;;;6.72;2.80;;;;;;;25.51;37.26;98727.34;5064817;28;20049;-95
2023/05/06 11:01:25;;;;;;;3.10;2.20;;;;;;;25.07;37.43;98696.75;5063236;28;20060;-94
2023/05/06 11:03:51;;;;;;;5.53;3.63;;;;;;;24.49;38.00;98707.25;5068797;28;20117;-92
2023/05/06 11:06:34;;;;;;;3.63;3.05;;;;;;;24.27;37.80;98736.22;5065112;28;20045;-93
2023/05/06 11:09:00;;;;;;;3.92;2.90;;;;;;;24.27;38.07;98719.03;5066386;28;20044;-92
2023/05/06 11:11:46;;;;;;;3.95;2.63;;;;;;;24.53;38.07;98735.88;5065328;28;20028;-92
2023/05/06 11:14:14;;;;;;;3.72;2.72;;;;;;;24.02;38.11;98703.94;5064842;28;20106;-92
2023/05/06 11:16:47;;;;;;;5.55;3.50;;;;;;;24.49;38.31;98723.56;5066494;28;20083;-94
2023/05/06 11:19:18;;;;;;;3.65;2.67;;;;;;;24.49;37.14;98726.28;5072547;28;20082;-93
2023/05/06 11:21:44;;;;;;;3.63;2.78;;;;;;;24.53;38.70;98714.16;5063082;28;20052;-94
2023/05/06 11:24:12;;;;;;;4.18;2.60;;;;;;;24.82;37.93;98736.09;5063415;28;20037;-93
2023/05/06 11:26:41;;;;;;;3.78;2.50;;;;;;;24.51;37.38;98711.53;5063799;28;20044;-95
2023/05/06 11:29:07;;;;;;;4.55;2.97;;;;;;;23.97;37.43;98698.88;5071960;28;20049;-93